sensor_id;sensor_type;location;lat;lon;timestamp;P1;durP1;ratioP1;P2;durP2;ratioP2
57241;SDS011;43095;53.302;5.786;2023-04-03T00:01:04;5.55;;;1.50;;
57241;SDS011;43095;53.302;5.786;2023-04-03T00:03:31;4.63;;;1.50;;
57241;SDS011;43095;53.302;5.786;2023-04-03T00:05:58;4.93;;;1.50;;
57241;SDS011;43095;53.302;5.786;2023-04-03T00:08:26;3.22;;;1.95;;
57241;SDS011;43095;53.302;5.786;2023-04-03T00:10:53;3.13;;;1.40;;
57241;SDS011;43095;53.302;5.786;2023-04-03T00:13:20;2.33;;;1.05;;
57241;SDS011;43095;53.302;5.786;2023-04-03T00:15:47;5.97;;;1.10;;
57241;SDS011;43095;53.302;5.786;2023-04-03T00:18:14;6.55;;;1.65;;
57241;SDS011;43095;53.302;5.786;2023-04-03T00:20:41;5.55;;;1.50;;
57241;SDS011;43095;53.302;5.786;2023-04-03T00:23:09;4.47;;;1.30;;
57241;SDS011;43095;53.302;5.786;2023-04-03T00:25:36;6.05;;;1.80;;
57241;SDS011;43095;53.302;5.786;2023-04-03T00:28:04;5.90;;;1.73;;
57241;SDS011;43095;53.302;5.786;2023-04-03T00:30:32;12.10;;;1.98;;
57241;SDS011;43095;53.302;5.786;2023-04-03T00:32:59;2.67;;;0.95;;
57241;SDS011;43095;53.302;5.786;2023-04-03T00:35:28;4.00;;;1.30;;
57241;SDS011;43095;53.302;5.786;2023-04-03T00:38:06;3.10;;;0.90;;
57241;SDS011;43095;53.302;5.786;2023-04-03T00:40:35;7.13;;;1.27;;
57241;SDS011;43095;53.302;5.786;2023-04-03T00:43:10;5.28;;;1.45;;
57241;SDS011;43095;53.302;5.786;2023-04-03T00:45:40;2.47;;;0.98;;
57241;SDS011;43095;53.302;5.786;2023-04-03T00:48:11;2.65;;;0.98;;
57241;SDS011;43095;53.302;5.786;2023-04-03T00:50:42;2.95;;;1.30;;
57241;SDS011;43095;53.302;5.786;2023-04-03T00:53:13;5.30;;;1.27;;
57241;SDS011;43095;53.302;5.786;2023-04-03T00:55:44;4.53;;;1.38;;
57241;SDS011;43095;53.302;5.786;2023-04-03T00:58:15;8.77;;;1.52;;
57241;SDS011;43095;53.302;5.786;2023-04-03T01:00:46;3.42;;;1.40;;
57241;SDS011;43095;53.302;5.786;2023-04-03T01:03:23;4.03;;;1.13;;
57241;SDS011;43095;53.302;5.786;2023-04-03T01:05:52;2.60;;;1.20;;
57241;SDS011;43095;53.302;5.786;2023-04-03T01:08:20;4.32;;;1.15;;
57241;SDS011;43095;53.302;5.786;2023-04-03T01:10:48;10.20;;;1.45;;
57241;SDS011;43095;53.302;5.786;2023-04-03T01:13:22;4.22;;;1.10;;
57241;SDS011;43095;53.302;5.786;2023-04-03T01:15:54;2.60;;;1.13;;
57241;SDS011;43095;53.302;5.786;2023-04-03T01:18:22;3.53;;;1.30;;
57241;SDS011;43095;53.302;5.786;2023-04-03T01:21:07;4.30;;;1.10;;
57241;SDS011;43095;53.302;5.786;2023-04-03T01:26:35;5.35;;;1.20;;
57241;SDS011;43095;53.302;5.786;2023-04-03T01:29:02;3.17;;;1.10;;
57241;SDS011;43095;53.302;5.786;2023-04-03T01:34:27;4.18;;;1.25;;
57241;SDS011;43095;53.302;5.786;2023-04-03T01:36:55;2.58;;;1.00;;
57241;SDS011;43095;53.302;5.786;2023-04-03T01:39:22;4.70;;;1.35;;
57241;SDS011;43095;53.302;5.786;2023-04-03T01:41:50;2.53;;;1.20;;
57241;SDS011;43095;53.302;5.786;2023-04-03T01:44:24;4.88;;;0.93;;
57241;SDS011;43095;53.302;5.786;2023-04-03T01:46:51;3.88;;;1.50;;
57241;SDS011;43095;53.302;5.786;2023-04-03T01:49:20;3.78;;;0.80;;
57241;SDS011;43095;53.302;5.786;2023-04-03T01:51:47;4.85;;;1.33;;
57241;SDS011;43095;53.302;5.786;2023-04-03T01:54:14;5.50;;;1.30;;
57241;SDS011;43095;53.302;5.786;2023-04-03T01:56:41;5.00;;;1.17;;
57241;SDS011;43095;53.302;5.786;2023-04-03T01:59:08;2.88;;;1.10;;
57241;SDS011;43095;53.302;5.786;2023-04-03T02:01:35;5.85;;;1.20;;
57241;SDS011;43095;53.302;5.786;2023-04-03T02:04:03;4.30;;;1.50;;
57241;SDS011;43095;53.302;5.786;2023-04-03T02:06:31;2.50;;;0.90;;
57241;SDS011;43095;53.302;5.786;2023-04-03T02:08:58;5.53;;;1.13;;
57241;SDS011;43095;53.302;5.786;2023-04-03T02:11:25;3.97;;;1.08;;
57241;SDS011;43095;53.302;5.786;2023-04-03T02:13:52;5.53;;;1.48;;
57241;SDS011;43095;53.302;5.786;2023-04-03T02:16:19;4.03;;;1.05;;
57241;SDS011;43095;53.302;5.786;2023-04-03T02:18:48;5.88;;;1.20;;
57241;SDS011;43095;53.302;5.786;2023-04-03T02:21:16;4.88;;;0.98;;
57241;SDS011;43095;53.302;5.786;2023-04-03T02:23:43;3.85;;;1.10;;
57241;SDS011;43095;53.302;5.786;2023-04-03T02:26:11;4.78;;;1.17;;
57241;SDS011;43095;53.302;5.786;2023-04-03T02:28:40;4.03;;;1.35;;
57241;SDS011;43095;53.302;5.786;2023-04-03T02:31:08;3.15;;;1.13;;
57241;SDS011;43095;53.302;5.786;2023-04-03T02:33:38;3.45;;;1.17;;
57241;SDS011;43095;53.302;5.786;2023-04-03T02:36:08;3.72;;;1.25;;
57241;SDS011;43095;53.302;5.786;2023-04-03T02:38:38;2.92;;;1.17;;
57241;SDS011;43095;53.302;5.786;2023-04-03T02:41:07;3.40;;;1.33;;
57241;SDS011;43095;53.302;5.786;2023-04-03T02:43:36;5.80;;;1.38;;
57241;SDS011;43095;53.302;5.786;2023-04-03T02:46:04;2.75;;;1.00;;
57241;SDS011;43095;53.302;5.786;2023-04-03T02:48:32;3.75;;;1.23;;
57241;SDS011;43095;53.302;5.786;2023-04-03T02:50:59;3.13;;;0.85;;
57241;SDS011;43095;53.302;5.786;2023-04-03T02:53:26;5.30;;;1.55;;
57241;SDS011;43095;53.302;5.786;2023-04-03T02:55:53;3.90;;;1.30;;
57241;SDS011;43095;53.302;5.786;2023-04-03T02:58:20;7.15;;;1.80;;
57241;SDS011;43095;53.302;5.786;2023-04-03T03:00:47;4.65;;;1.52;;
57241;SDS011;43095;53.302;5.786;2023-04-03T03:03:14;6.38;;;1.83;;
57241;SDS011;43095;53.302;5.786;2023-04-03T03:05:41;7.55;;;1.30;;
57241;SDS011;43095;53.302;5.786;2023-04-03T03:08:09;5.63;;;1.30;;
57241;SDS011;43095;53.302;5.786;2023-04-03T03:10:36;8.05;;;2.28;;
57241;SDS011;43095;53.302;5.786;2023-04-03T03:13:05;5.00;;;1.13;;
57241;SDS011;43095;53.302;5.786;2023-04-03T03:15:32;6.22;;;1.77;;
57241;SDS011;43095;53.302;5.786;2023-04-03T03:18:01;9.05;;;1.50;;
57241;SDS011;43095;53.302;5.786;2023-04-03T03:20:28;6.75;;;1.40;;
57241;SDS011;43095;53.302;5.786;2023-04-03T03:22:57;5.80;;;1.75;;
57241;SDS011;43095;53.302;5.786;2023-04-03T03:25:24;7.90;;;1.25;;
57241;SDS011;43095;53.302;5.786;2023-04-03T03:27:51;5.22;;;1.70;;
57241;SDS011;43095;53.302;5.786;2023-04-03T03:30:18;4.93;;;1.70;;
57241;SDS011;43095;53.302;5.786;2023-04-03T03:32:45;3.97;;;1.40;;
57241;SDS011;43095;53.302;5.786;2023-04-03T03:35:12;8.52;;;1.80;;
57241;SDS011;43095;53.302;5.786;2023-04-03T03:37:39;3.78;;;1.50;;
57241;SDS011;43095;53.302;5.786;2023-04-03T03:40:07;4.97;;;1.50;;
57241;SDS011;43095;53.302;5.786;2023-04-03T03:42:36;4.07;;;1.50;;
57241;SDS011;43095;53.302;5.786;2023-04-03T03:45:03;5.47;;;1.88;;
57241;SDS011;43095;53.302;5.786;2023-04-03T03:47:31;4.95;;;1.17;;
57241;SDS011;43095;53.302;5.786;2023-04-03T03:49:58;7.22;;;1.92;;
57241;SDS011;43095;53.302;5.786;2023-04-03T03:52:25;4.93;;;1.65;;
57241;SDS011;43095;53.302;5.786;2023-04-03T03:54:53;10.65;;;1.92;;
57241;SDS011;43095;53.302;5.786;2023-04-03T03:57:20;5.15;;;1.60;;
57241;SDS011;43095;53.302;5.786;2023-04-03T03:59:49;5.63;;;1.60;;
57241;SDS011;43095;53.302;5.786;2023-04-03T04:02:18;5.10;;;2.08;;
57241;SDS011;43095;53.302;5.786;2023-04-03T04:04:46;5.70;;;1.67;;
57241;SDS011;43095;53.302;5.786;2023-04-03T04:07:13;7.55;;;1.50;;
57241;SDS011;43095;53.302;5.786;2023-04-03T04:09:41;4.13;;;1.85;;
57241;SDS011;43095;53.302;5.786;2023-04-03T04:12:08;8.82;;;3.13;;
57241;SDS011;43095;53.302;5.786;2023-04-03T04:14:37;5.57;;;1.98;;
57241;SDS011;43095;53.302;5.786;2023-04-03T04:17:07;2.67;;;1.25;;
57241;SDS011;43095;53.302;5.786;2023-04-03T04:19:35;6.32;;;2.28;;
57241;SDS011;43095;53.302;5.786;2023-04-03T04:22:03;10.00;;;2.45;;
57241;SDS011;43095;53.302;5.786;2023-04-03T04:24:31;4.22;;;1.83;;
57241;SDS011;43095;53.302;5.786;2023-04-03T04:27:01;4.97;;;1.80;;
57241;SDS011;43095;53.302;5.786;2023-04-03T04:29:30;6.70;;;1.85;;
57241;SDS011;43095;53.302;5.786;2023-04-03T04:32:03;9.32;;;3.08;;
57241;SDS011;43095;53.302;5.786;2023-04-03T04:34:31;6.45;;;2.75;;
57241;SDS011;43095;53.302;5.786;2023-04-03T04:37:02;13.52;;;2.85;;
57241;SDS011;43095;53.302;5.786;2023-04-03T04:39:29;5.05;;;2.97;;
57241;SDS011;43095;53.302;5.786;2023-04-03T04:41:57;8.63;;;2.55;;
57241;SDS011;43095;53.302;5.786;2023-04-03T04:44:29;6.50;;;2.05;;
57241;SDS011;43095;53.302;5.786;2023-04-03T04:46:56;6.10;;;2.22;;
57241;SDS011;43095;53.302;5.786;2023-04-03T04:49:23;5.75;;;2.08;;
57241;SDS011;43095;53.302;5.786;2023-04-03T04:51:51;8.60;;;2.67;;
57241;SDS011;43095;53.302;5.786;2023-04-03T04:54:25;5.40;;;1.83;;
57241;SDS011;43095;53.302;5.786;2023-04-03T04:56:52;9.10;;;2.45;;
57241;SDS011;43095;53.302;5.786;2023-04-03T04:59:19;7.20;;;2.38;;
57241;SDS011;43095;53.302;5.786;2023-04-03T05:01:49;7.72;;;2.08;;
57241;SDS011;43095;53.302;5.786;2023-04-03T05:04:16;9.45;;;2.58;;
57241;SDS011;43095;53.302;5.786;2023-04-03T05:06:48;5.85;;;2.10;;
57241;SDS011;43095;53.302;5.786;2023-04-03T05:09:20;7.47;;;1.90;;
57241;SDS011;43095;53.302;5.786;2023-04-03T05:11:49;6.35;;;2.13;;
57241;SDS011;43095;53.302;5.786;2023-04-03T05:14:19;5.32;;;2.17;;
57241;SDS011;43095;53.302;5.786;2023-04-03T05:16:47;12.07;;;3.67;;
57241;SDS011;43095;53.302;5.786;2023-04-03T05:19:17;7.72;;;2.50;;
57241;SDS011;43095;53.302;5.786;2023-04-03T05:21:45;7.47;;;2.75;;
57241;SDS011;43095;53.302;5.786;2023-04-03T05:24:15;8.95;;;2.55;;
57241;SDS011;43095;53.302;5.786;2023-04-03T05:26:43;6.75;;;2.70;;
57241;SDS011;43095;53.302;5.786;2023-04-03T05:29:11;6.53;;;2.50;;
57241;SDS011;43095;53.302;5.786;2023-04-03T05:31:39;9.18;;;2.38;;
57241;SDS011;43095;53.302;5.786;2023-04-03T05:34:08;8.25;;;2.10;;
57241;SDS011;43095;53.302;5.786;2023-04-03T05:36:47;8.43;;;2.22;;
57241;SDS011;43095;53.302;5.786;2023-04-03T05:39:14;11.38;;;3.58;;
57241;SDS011;43095;53.302;5.786;2023-04-03T05:41:43;7.88;;;2.58;;
57241;SDS011;43095;53.302;5.786;2023-04-03T05:44:11;8.48;;;2.67;;
57241;SDS011;43095;53.302;5.786;2023-04-03T05:46:38;5.38;;;2.17;;
57241;SDS011;43095;53.302;5.786;2023-04-03T05:49:08;12.18;;;2.33;;
57241;SDS011;43095;53.302;5.786;2023-04-03T05:51:36;12.10;;;4.15;;
57241;SDS011;43095;53.302;5.786;2023-04-03T05:56:56;12.03;;;5.70;;
57241;SDS011;43095;53.302;5.786;2023-04-03T05:59:24;14.98;;;5.25;;
57241;SDS011;43095;53.302;5.786;2023-04-03T06:01:54;12.82;;;4.63;;
57241;SDS011;43095;53.302;5.786;2023-04-03T06:04:21;8.02;;;2.85;;
57241;SDS011;43095;53.302;5.786;2023-04-03T06:06:49;6.03;;;2.83;;
57241;SDS011;43095;53.302;5.786;2023-04-03T06:09:23;10.88;;;3.20;;
57241;SDS011;43095;53.302;5.786;2023-04-03T06:11:52;10.95;;;2.60;;
57241;SDS011;43095;53.302;5.786;2023-04-03T06:14:21;7.72;;;3.33;;
57241;SDS011;43095;53.302;5.786;2023-04-03T06:16:52;6.47;;;2.25;;
57241;SDS011;43095;53.302;5.786;2023-04-03T06:19:20;6.63;;;2.70;;
57241;SDS011;43095;53.302;5.786;2023-04-03T06:21:51;6.72;;;2.90;;
57241;SDS011;43095;53.302;5.786;2023-04-03T06:24:18;7.13;;;2.70;;
57241;SDS011;43095;53.302;5.786;2023-04-03T06:26:48;8.30;;;2.70;;
57241;SDS011;43095;53.302;5.786;2023-04-03T06:29:16;9.10;;;3.17;;
57241;SDS011;43095;53.302;5.786;2023-04-03T06:31:44;10.38;;;3.63;;
57241;SDS011;43095;53.302;5.786;2023-04-03T06:34:11;7.57;;;3.03;;
57241;SDS011;43095;53.302;5.786;2023-04-03T06:36:39;11.20;;;3.30;;
57241;SDS011;43095;53.302;5.786;2023-04-03T06:39:06;11.60;;;3.92;;
57241;SDS011;43095;53.302;5.786;2023-04-03T06:41:34;9.73;;;3.42;;
57241;SDS011;43095;53.302;5.786;2023-04-03T06:44:02;16.50;;;4.28;;
57241;SDS011;43095;53.302;5.786;2023-04-03T06:46:30;9.50;;;2.92;;
57241;SDS011;43095;53.302;5.786;2023-04-03T06:48:59;6.25;;;2.70;;
57241;SDS011;43095;53.302;5.786;2023-04-03T06:51:27;11.13;;;3.85;;
57241;SDS011;43095;53.302;5.786;2023-04-03T06:53:58;12.05;;;5.78;;
57241;SDS011;43095;53.302;5.786;2023-04-03T06:56:26;10.35;;;3.17;;
57241;SDS011;43095;53.302;5.786;2023-04-03T06:58:55;11.50;;;3.13;;
57241;SDS011;43095;53.302;5.786;2023-04-03T07:01:29;12.15;;;3.13;;
57241;SDS011;43095;53.302;5.786;2023-04-03T07:03:56;10.80;;;3.10;;
57241;SDS011;43095;53.302;5.786;2023-04-03T07:06:24;10.32;;;3.45;;
57241;SDS011;43095;53.302;5.786;2023-04-03T07:08:54;8.80;;;2.47;;
57241;SDS011;43095;53.302;5.786;2023-04-03T07:11:22;11.30;;;3.08;;
57241;SDS011;43095;53.302;5.786;2023-04-03T07:13:49;8.65;;;2.53;;
57241;SDS011;43095;53.302;5.786;2023-04-03T07:16:17;7.22;;;3.15;;
57241;SDS011;43095;53.302;5.786;2023-04-03T07:18:45;12.45;;;3.38;;
57241;SDS011;43095;53.302;5.786;2023-04-03T07:21:13;8.85;;;2.67;;
57241;SDS011;43095;53.302;5.786;2023-04-03T07:23:40;7.85;;;2.80;;
57241;SDS011;43095;53.302;5.786;2023-04-03T07:26:07;11.75;;;2.97;;
57241;SDS011;43095;53.302;5.786;2023-04-03T07:28:35;10.05;;;2.67;;
57241;SDS011;43095;53.302;5.786;2023-04-03T07:31:04;10.27;;;2.88;;
57241;SDS011;43095;53.302;5.786;2023-04-03T07:33:39;7.57;;;2.75;;
57241;SDS011;43095;53.302;5.786;2023-04-03T07:36:06;5.45;;;2.22;;
57241;SDS011;43095;53.302;5.786;2023-04-03T07:38:35;11.75;;;2.75;;
57241;SDS011;43095;53.302;5.786;2023-04-03T07:41:02;9.80;;;2.38;;
57241;SDS011;43095;53.302;5.786;2023-04-03T07:43:30;8.35;;;2.60;;
57241;SDS011;43095;53.302;5.786;2023-04-03T07:45:57;9.50;;;2.55;;
57241;SDS011;43095;53.302;5.786;2023-04-03T07:48:24;5.10;;;1.85;;
57241;SDS011;43095;53.302;5.786;2023-04-03T07:50:52;5.30;;;1.80;;
57241;SDS011;43095;53.302;5.786;2023-04-03T07:53:19;5.50;;;2.30;;
57241;SDS011;43095;53.302;5.786;2023-04-03T07:55:51;9.38;;;2.33;;
57241;SDS011;43095;53.302;5.786;2023-04-03T07:58:21;9.32;;;2.25;;
57241;SDS011;43095;53.302;5.786;2023-04-03T08:00:49;7.40;;;1.80;;
57241;SDS011;43095;53.302;5.786;2023-04-03T08:03:19;5.78;;;1.90;;
57241;SDS011;43095;53.302;5.786;2023-04-03T08:05:47;9.23;;;2.30;;
57241;SDS011;43095;53.302;5.786;2023-04-03T08:08:17;6.60;;;2.08;;
57241;SDS011;43095;53.302;5.786;2023-04-03T08:10:50;9.32;;;2.15;;
57241;SDS011;43095;53.302;5.786;2023-04-03T08:15:47;9.85;;;1.80;;
57241;SDS011;43095;53.302;5.786;2023-04-03T08:18:15;5.00;;;1.90;;
57241;SDS011;43095;53.302;5.786;2023-04-03T08:20:42;8.00;;;2.40;;
57241;SDS011;43095;53.302;5.786;2023-04-03T08:23:09;5.13;;;2.20;;
57241;SDS011;43095;53.302;5.786;2023-04-03T08:25:38;7.13;;;2.40;;
57241;SDS011;43095;53.302;5.786;2023-04-03T08:28:08;10.18;;;2.47;;
57241;SDS011;43095;53.302;5.786;2023-04-03T08:30:41;6.38;;;2.60;;
57241;SDS011;43095;53.302;5.786;2023-04-03T08:33:09;7.43;;;1.83;;
57241;SDS011;43095;53.302;5.786;2023-04-03T08:35:41;5.45;;;1.85;;
57241;SDS011;43095;53.302;5.786;2023-04-03T08:38:09;7.43;;;1.85;;
57241;SDS011;43095;53.302;5.786;2023-04-03T08:40:36;5.40;;;1.55;;
57241;SDS011;43095;53.302;5.786;2023-04-03T08:46:21;7.35;;;2.30;;
57241;SDS011;43095;53.302;5.786;2023-04-03T08:48:53;5.90;;;1.60;;
57241;SDS011;43095;53.302;5.786;2023-04-03T08:51:23;6.32;;;1.92;;
57241;SDS011;43095;53.302;5.786;2023-04-03T08:56:23;7.50;;;1.70;;
57241;SDS011;43095;53.302;5.786;2023-04-03T08:58:58;7.45;;;1.80;;
57241;SDS011;43095;53.302;5.786;2023-04-03T09:01:34;3.92;;;1.45;;
57241;SDS011;43095;53.302;5.786;2023-04-03T09:04:15;7.15;;;1.80;;
57241;SDS011;43095;53.302;5.786;2023-04-03T09:06:46;5.90;;;1.58;;
57241;SDS011;43095;53.302;5.786;2023-04-03T09:16:55;3.80;;;1.00;;
57241;SDS011;43095;53.302;5.786;2023-04-03T09:22:18;2.63;;;0.75;;
57241;SDS011;43095;53.302;5.786;2023-04-03T09:24:50;4.13;;;1.17;;
57241;SDS011;43095;53.302;5.786;2023-04-03T09:27:32;3.22;;;0.88;;
57241;SDS011;43095;53.302;5.786;2023-04-03T09:29:59;5.35;;;1.20;;
57241;SDS011;43095;53.302;5.786;2023-04-03T09:32:27;4.43;;;1.13;;
57241;SDS011;43095;53.302;5.786;2023-04-03T09:34:57;2.83;;;0.93;;
57241;SDS011;43095;53.302;5.786;2023-04-03T09:37:50;2.50;;;0.93;;
57241;SDS011;43095;53.302;5.786;2023-04-03T09:42:53;5.40;;;1.02;;
57241;SDS011;43095;53.302;5.786;2023-04-03T09:56:03;4.75;;;0.98;;
57241;SDS011;43095;53.302;5.786;2023-04-03T09:58:48;3.72;;;0.75;;
57241;SDS011;43095;53.302;5.786;2023-04-03T10:04:36;3.50;;;1.27;;
57241;SDS011;43095;53.302;5.786;2023-04-03T10:07:02;2.45;;;0.85;;
57241;SDS011;43095;53.302;5.786;2023-04-03T10:09:30;4.15;;;0.95;;
57241;SDS011;43095;53.302;5.786;2023-04-03T10:14:28;2.85;;;0.73;;
57241;SDS011;43095;53.302;5.786;2023-04-03T10:17:02;1.83;;;0.80;;
57241;SDS011;43095;53.302;5.786;2023-04-03T10:28:45;2.30;;;0.70;;
57241;SDS011;43095;53.302;5.786;2023-04-03T10:34:01;2.97;;;0.75;;
57241;SDS011;43095;53.302;5.786;2023-04-03T10:44:51;2.45;;;0.90;;
57241;SDS011;43095;53.302;5.786;2023-04-03T10:47:32;4.50;;;1.00;;
57241;SDS011;43095;53.302;5.786;2023-04-03T10:53:03;3.25;;;0.77;;
57241;SDS011;43095;53.302;5.786;2023-04-03T10:58:24;3.00;;;0.80;;
57241;SDS011;43095;53.302;5.786;2023-04-03T11:00:52;2.50;;;0.90;;
57241;SDS011;43095;53.302;5.786;2023-04-03T11:03:30;1.33;;;0.60;;
57241;SDS011;43095;53.302;5.786;2023-04-03T11:06:04;2.97;;;0.90;;
57241;SDS011;43095;53.302;5.786;2023-04-03T11:08:38;4.75;;;0.82;;
57241;SDS011;43095;53.302;5.786;2023-04-03T11:11:22;3.90;;;0.80;;
57241;SDS011;43095;53.302;5.786;2023-04-03T11:16:41;4.13;;;1.02;;
57241;SDS011;43095;53.302;5.786;2023-04-03T11:19:20;3.65;;;0.70;;
57241;SDS011;43095;53.302;5.786;2023-04-03T11:24:54;3.72;;;0.98;;
57241;SDS011;43095;53.302;5.786;2023-04-03T11:27:56;4.03;;;0.80;;
57241;SDS011;43095;53.302;5.786;2023-04-03T11:30:30;2.78;;;0.70;;
57241;SDS011;43095;53.302;5.786;2023-04-03T11:35:51;3.83;;;1.40;;
57241;SDS011;43095;53.302;5.786;2023-04-03T11:38:33;3.78;;;1.35;;
57241;SDS011;43095;53.302;5.786;2023-04-03T11:41:06;4.10;;;1.15;;
57241;SDS011;43095;53.302;5.786;2023-04-03T11:43:39;3.65;;;0.80;;
57241;SDS011;43095;53.302;5.786;2023-04-03T11:46:08;4.18;;;1.25;;
57241;SDS011;43095;53.302;5.786;2023-04-03T11:51:37;4.10;;;1.08;;
57241;SDS011;43095;53.302;5.786;2023-04-03T11:54:50;3.38;;;0.73;;
57241;SDS011;43095;53.302;5.786;2023-04-03T11:57:39;2.85;;;1.10;;
57241;SDS011;43095;53.302;5.786;2023-04-03T12:13:41;2.97;;;1.42;;
57241;SDS011;43095;53.302;5.786;2023-04-03T12:16:40;3.60;;;1.00;;
57241;SDS011;43095;53.302;5.786;2023-04-03T12:24:27;2.00;;;1.10;;
57241;SDS011;43095;53.302;5.786;2023-04-03T12:32:06;6.07;;;2.22;;
57241;SDS011;43095;53.302;5.786;2023-04-03T12:40:47;3.85;;;1.38;;
57241;SDS011;43095;53.302;5.786;2023-04-03T12:46:07;3.00;;;0.90;;
57241;SDS011;43095;53.302;5.786;2023-04-03T12:48:39;3.35;;;1.02;;
57241;SDS011;43095;53.302;5.786;2023-04-03T12:51:16;2.60;;;0.80;;
57241;SDS011;43095;53.302;5.786;2023-04-03T12:53:47;2.53;;;1.30;;
57241;SDS011;43095;53.302;5.786;2023-04-03T12:56:28;4.82;;;1.23;;
57241;SDS011;43095;53.302;5.786;2023-04-03T13:01:57;1.98;;;0.80;;
57241;SDS011;43095;53.302;5.786;2023-04-03T13:04:26;3.45;;;1.13;;
57241;SDS011;43095;53.302;5.786;2023-04-03T13:06:55;5.90;;;1.52;;
57241;SDS011;43095;53.302;5.786;2023-04-03T13:09:23;2.35;;;0.77;;
57241;SDS011;43095;53.302;5.786;2023-04-03T13:12:07;1.75;;;0.70;;
57241;SDS011;43095;53.302;5.786;2023-04-03T13:14:38;4.53;;;1.02;;
57241;SDS011;43095;53.302;5.786;2023-04-03T13:17:12;2.35;;;1.15;;
57241;SDS011;43095;53.302;5.786;2023-04-03T13:19:41;3.35;;;1.13;;
57241;SDS011;43095;53.302;5.786;2023-04-03T13:22:22;4.35;;;1.20;;
57241;SDS011;43095;53.302;5.786;2023-04-03T13:24:51;4.22;;;1.10;;
57241;SDS011;43095;53.302;5.786;2023-04-03T13:27:20;3.75;;;0.93;;
57241;SDS011;43095;53.302;5.786;2023-04-03T13:29:52;2.33;;;0.82;;
57241;SDS011;43095;53.302;5.786;2023-04-03T13:32:23;6.15;;;2.10;;
57241;SDS011;43095;53.302;5.786;2023-04-03T13:34:52;3.00;;;1.10;;
57241;SDS011;43095;53.302;5.786;2023-04-03T13:37:28;3.60;;;1.13;;
57241;SDS011;43095;53.302;5.786;2023-04-03T13:40:10;3.70;;;1.38;;
57241;SDS011;43095;53.302;5.786;2023-04-03T13:42:39;2.22;;;1.05;;
57241;SDS011;43095;53.302;5.786;2023-04-03T13:45:09;2.45;;;0.85;;
57241;SDS011;43095;53.302;5.786;2023-04-03T13:47:53;2.72;;;1.10;;
57241;SDS011;43095;53.302;5.786;2023-04-03T13:54:01;2.85;;;0.90;;
57241;SDS011;43095;53.302;5.786;2023-04-03T13:57:12;3.30;;;1.20;;
57241;SDS011;43095;53.302;5.786;2023-04-03T13:59:41;3.03;;;1.10;;
57241;SDS011;43095;53.302;5.786;2023-04-03T14:04:47;5.82;;;1.27;;
57241;SDS011;43095;53.302;5.786;2023-04-03T14:07:19;3.63;;;1.33;;
57241;SDS011;43095;53.302;5.786;2023-04-03T14:09:47;2.78;;;1.23;;
57241;SDS011;43095;53.302;5.786;2023-04-03T14:12:17;3.47;;;1.02;;
57241;SDS011;43095;53.302;5.786;2023-04-03T14:15:14;4.60;;;1.33;;
57241;SDS011;43095;53.302;5.786;2023-04-03T14:17:54;2.15;;;0.90;;
57241;SDS011;43095;53.302;5.786;2023-04-03T14:20:24;4.10;;;1.20;;
57241;SDS011;43095;53.302;5.786;2023-04-03T14:22:54;3.00;;;1.30;;
57241;SDS011;43095;53.302;5.786;2023-04-03T14:25:22;3.83;;;0.98;;
57241;SDS011;43095;53.302;5.786;2023-04-03T14:27:53;2.72;;;1.17;;
57241;SDS011;43095;53.302;5.786;2023-04-03T14:30:22;4.05;;;1.20;;
57241;SDS011;43095;53.302;5.786;2023-04-03T14:33:00;4.28;;;1.23;;
57241;SDS011;43095;53.302;5.786;2023-04-03T14:35:27;4.28;;;2.45;;
57241;SDS011;43095;53.302;5.786;2023-04-03T14:37:55;2.40;;;1.40;;
57241;SDS011;43095;53.302;5.786;2023-04-03T14:40:24;3.05;;;1.45;;
57241;SDS011;43095;53.302;5.786;2023-04-03T14:42:52;4.20;;;1.60;;
57241;SDS011;43095;53.302;5.786;2023-04-03T14:45:22;6.38;;;1.60;;
57241;SDS011;43095;53.302;5.786;2023-04-03T14:47:53;3.20;;;1.23;;
57241;SDS011;43095;53.302;5.786;2023-04-03T14:50:23;3.85;;;1.30;;
57241;SDS011;43095;53.302;5.786;2023-04-03T14:52:53;3.72;;;1.35;;
57241;SDS011;43095;53.302;5.786;2023-04-03T14:55:23;3.67;;;1.35;;
57241;SDS011;43095;53.302;5.786;2023-04-03T14:57:51;2.88;;;1.10;;
57241;SDS011;43095;53.302;5.786;2023-04-03T15:00:20;3.25;;;1.38;;
57241;SDS011;43095;53.302;5.786;2023-04-03T15:02:48;4.95;;;1.40;;
57241;SDS011;43095;53.302;5.786;2023-04-03T15:05:15;2.83;;;1.23;;
57241;SDS011;43095;53.302;5.786;2023-04-03T15:07:50;5.30;;;1.83;;
57241;SDS011;43095;53.302;5.786;2023-04-03T15:10:21;4.47;;;1.92;;
57241;SDS011;43095;53.302;5.786;2023-04-03T15:12:52;5.47;;;1.95;;
57241;SDS011;43095;53.302;5.786;2023-04-03T15:15:20;3.28;;;1.48;;
57241;SDS011;43095;53.302;5.786;2023-04-03T15:17:53;2.78;;;1.30;;
57241;SDS011;43095;53.302;5.786;2023-04-03T15:20:24;5.22;;;1.30;;
57241;SDS011;43095;53.302;5.786;2023-04-03T15:22:53;4.47;;;1.20;;
57241;SDS011;43095;53.302;5.786;2023-04-03T15:25:23;6.15;;;2.10;;
57241;SDS011;43095;53.302;5.786;2023-04-03T15:27:52;4.35;;;1.65;;
57241;SDS011;43095;53.302;5.786;2023-04-03T15:30:22;7.07;;;1.95;;
57241;SDS011;43095;53.302;5.786;2023-04-03T15:32:50;6.03;;;2.10;;
57241;SDS011;43095;53.302;5.786;2023-04-03T15:35:17;5.00;;;1.75;;
57241;SDS011;43095;53.302;5.786;2023-04-03T15:37:44;4.22;;;1.77;;
57241;SDS011;43095;53.302;5.786;2023-04-03T15:40:11;4.05;;;1.80;;
57241;SDS011;43095;53.302;5.786;2023-04-03T15:42:39;3.75;;;1.85;;
57241;SDS011;43095;53.302;5.786;2023-04-03T15:45:07;4.57;;;2.00;;
57241;SDS011;43095;53.302;5.786;2023-04-03T15:47:35;5.78;;;2.05;;
57241;SDS011;43095;53.302;5.786;2023-04-03T15:50:03;3.83;;;1.83;;
57241;SDS011;43095;53.302;5.786;2023-04-03T15:52:33;5.10;;;1.70;;
57241;SDS011;43095;53.302;5.786;2023-04-03T15:55:00;3.90;;;1.10;;
57241;SDS011;43095;53.302;5.786;2023-04-03T15:57:27;5.60;;;1.40;;
57241;SDS011;43095;53.302;5.786;2023-04-03T15:59:54;3.50;;;1.52;;
57241;SDS011;43095;53.302;5.786;2023-04-03T16:02:22;3.63;;;1.58;;
57241;SDS011;43095;53.302;5.786;2023-04-03T16:04:49;2.75;;;0.93;;
57241;SDS011;43095;53.302;5.786;2023-04-03T16:07:16;2.75;;;1.13;;
57241;SDS011;43095;53.302;5.786;2023-04-03T16:09:43;5.57;;;1.50;;
57241;SDS011;43095;53.302;5.786;2023-04-03T16:12:11;2.42;;;0.95;;
57241;SDS011;43095;53.302;5.786;2023-04-03T16:14:38;1.73;;;0.60;;
57241;SDS011;43095;53.302;5.786;2023-04-03T16:17:05;3.05;;;1.15;;
57241;SDS011;43095;53.302;5.786;2023-04-03T16:19:32;1.77;;;0.80;;
57241;SDS011;43095;53.302;5.786;2023-04-03T16:21:59;2.40;;;0.82;;
57241;SDS011;43095;53.302;5.786;2023-04-03T16:24:26;6.80;;;1.10;;
57241;SDS011;43095;53.302;5.786;2023-04-03T16:26:53;4.30;;;0.93;;
57241;SDS011;43095;53.302;5.786;2023-04-03T16:29:21;3.80;;;1.05;;
57241;SDS011;43095;53.302;5.786;2023-04-03T16:31:48;7.20;;;0.80;;
57241;SDS011;43095;53.302;5.786;2023-04-03T16:34:15;2.55;;;1.00;;
57241;SDS011;43095;53.302;5.786;2023-04-03T16:36:42;5.53;;;1.15;;
57241;SDS011;43095;53.302;5.786;2023-04-03T16:39:09;3.83;;;0.90;;
57241;SDS011;43095;53.302;5.786;2023-04-03T16:41:36;3.47;;;1.25;;
57241;SDS011;43095;53.302;5.786;2023-04-03T16:44:04;4.15;;;0.77;;
57241;SDS011;43095;53.302;5.786;2023-04-03T16:46:33;3.58;;;1.00;;
57241;SDS011;43095;53.302;5.786;2023-04-03T16:49:00;3.05;;;0.90;;
57241;SDS011;43095;53.302;5.786;2023-04-03T16:51:28;2.53;;;0.80;;
57241;SDS011;43095;53.302;5.786;2023-04-03T16:53:55;3.40;;;1.17;;
57241;SDS011;43095;53.302;5.786;2023-04-03T16:56:22;5.50;;;1.13;;
57241;SDS011;43095;53.302;5.786;2023-04-03T16:58:49;4.65;;;0.70;;
57241;SDS011;43095;53.302;5.786;2023-04-03T17:01:17;2.55;;;1.10;;
57241;SDS011;43095;53.302;5.786;2023-04-03T17:03:46;5.47;;;1.10;;
57241;SDS011;43095;53.302;5.786;2023-04-03T17:06:16;5.80;;;1.08;;
57241;SDS011;43095;53.302;5.786;2023-04-03T17:08:46;5.00;;;1.38;;